Time;durP1;ratioP1;P1;durP2;ratioP2;P2;SDS_P1;SDS_P2;PMS_P1;PMS_P2;Temp;Humidity;BMP_temperature;BMP_pressure;BME280_temperature;BME280_humidity;BME280_pressure;Samples;Min_cycle;Max_cycle;Signal;HPM_P1;HPM_P2
2021/01/25 00:02:00;;;;;;;41.63;22.77;;;1.80;99.90;;;-0.48;100.00;98729.75;4983262;28;102405;-64
2021/01/25 00:04:26;;;;;;;42.03;21.47;;;1.90;99.90;;;-0.50;100.00;98730.84;4977492;28;100149;-65
2021/01/25 00:06:53;;;;;;;46.67;23.33;;;1.70;99.90;;;-0.47;100.00;98725.31;4985533;28;100168;-62
2021/01/25 00:09:19;;;;;;;42.43;22.03;;;1.70;99.90;;;-0.49;100.00;98727.25;4984818;28;101539;-62
2021/01/25 00:11:45;;;;;;;46.67;24.80;;;1.80;99.90;;;-0.49;100.00;98727.25;4984823;28;101237;-65
2021/01/25 00:14:12;;;;;;;46.37;25.07;;;1.70;99.90;;;-0.47;100.00;98726.16;4985565;28;100041;-64
2021/01/25 00:16:38;;;;;;;45.87;24.40;;;1.80;99.90;;;-0.47;100.00;98720.06;4986469;28;100284;-64
2021/01/25 00:19:05;;;;;;;46.60;24.43;;;2.00;99.90;;;-0.47;100.00;98725.31;4985244;27;100972;-64
2021/01/25 00:21:32;;;;;;;46.13;25.10;;;1.80;99.90;;;-0.45;100.00;98728.66;4986156;28;100378;-64
2021/01/25 00:23:58;;;;;;;45.47;24.23;;;1.90;99.90;;;-0.44;100.00;98722.47;4985858;28;100230;-65
2021/01/25 00:26:25;;;;;;;45.27;24.67;;;1.70;99.90;;;-0.45;100.00;98726.03;4986084;28;100224;-64
2021/01/25 00:28:51;;;;;;;46.57;24.23;;;1.80;99.90;;;-0.42;100.00;98728.44;4985181;28;100880;-62
2021/01/25 00:31:18;;;;;;;44.80;23.43;;;1.80;99.90;;;-0.46;100.00;98722.56;4984365;28;100886;-63
2021/01/25 00:33:44;;;;;;;42.37;22.97;;;1.80;99.90;;;-0.49;100.00;98724.63;4983930;28;100332;-64
2021/01/25 00:36:11;;;;;;;47.67;24.37;;;1.80;99.90;;;-0.49;100.00;98725.44;4983471;28;100313;-62
2021/01/25 00:38:38;;;;;;;46.73;24.53;;;1.80;99.90;;;-0.51;100.00;98723.94;4982721;28;103508;-61
2021/01/25 00:41:04;;;;;;;45.83;22.77;;;1.80;99.90;;;-0.50;100.00;98730.84;4984915;28;100457;-63
2021/01/25 00:43:31;;;;;;;46.03;24.60;;;1.70;99.90;;;-0.54;100.00;98727.66;4986341;28;100213;-63
2021/01/25 00:45:57;;;;;;;49.00;23.47;;;1.70;99.90;;;-0.51;100.00;98727.41;4985658;28;99943;-63
2021/01/25 00:48:23;;;;;;;44.60;24.53;;;1.80;99.90;;;-0.50;100.00;98726.44;4983812;28;101463;-64
2021/01/25 00:50:50;;;;;;;46.47;24.63;;;1.70;99.90;;;-0.50;100.00;98726.44;4983027;28;100842;-62
2021/01/25 00:53:17;;;;;;;46.60;25.30;;;1.80;99.90;;;-0.48;100.00;98731.53;4981852;28;100038;-63
2021/01/25 00:55:44;;;;;;;43.10;22.53;;;1.80;99.90;;;-0.46;100.00;98729.63;4981918;28;100317;-63
2021/01/25 00:58:11;;;;;;;47.37;23.50;;;1.60;99.90;;;-0.50;100.00;98730.84;4984156;28;102485;-62
2021/01/25 01:00:37;;;;;;;44.00;22.93;;;1.90;99.90;;;-0.47;100.00;98736.66;4983893;28;101347;-64
2021/01/25 01:03:04;;;;;;;40.63;23.50;;;1.70;99.90;;;-0.48;100.00;98735.00;4985118;28;100576;-63
2021/01/25 01:05:31;;;;;;;44.97;24.20;;;1.80;99.90;;;-0.44;100.00;98733.81;4982006;28;100298;-63
2021/01/25 01:07:57;;;;;;;41.93;22.27;;;1.90;99.90;;;-0.47;100.00;98734.03;4983932;28;101621;-63
2021/01/25 01:10:25;;;;;;;39.33;23.70;;;1.70;99.90;;;-0.45;100.00;98739.19;4984105;28;101061;-62
2021/01/25 01:12:51;;;;;;;41.37;22.70;;;1.90;99.90;;;-0.41;100.00;98740.59;4984896;28;100265;-62
2021/01/25 01:15:17;;;;;;;41.03;23.47;;;1.90;99.90;;;-0.38;100.00;98743.00;4984846;28;100159;-62
2021/01/25 01:17:44;;;;;;;43.17;23.27;;;1.90;99.90;;;-0.37;100.00;98745.47;4984996;28;100721;-63
2021/01/25 01:20:11;;;;;;;39.83;23.23;;;1.90;99.90;;;-0.39;100.00;98744.78;4984222;28;101192;-62
2021/01/25 01:22:38;;;;;;;42.17;23.87;;;2.00;99.90;;;-0.39;100.00;98744.78;4984869;28;100283;-62
2021/01/25 01:25:07;;;;;;;45.07;24.10;;;2.00;99.90;;;-0.37;100.00;98745.47;4985303;28;100083;-63
2021/01/25 01:27:34;;;;;;;43.20;23.70;;;1.90;99.90;;;-0.39;100.00;98744.78;4984807;28;101574;-64
2021/01/25 01:30:01;;;;;;;44.67;24.90;;;1.90;99.90;;;-0.38;100.00;98749.06;4983176;28;100986;-63
2021/01/25 01:32:27;;;;;;;41.10;23.37;;;2.10;99.90;;;-0.40;100.00;98751.00;4984248;28;100110;-63
2021/01/25 01:34:54;;;;;;;42.53;24.03;;;2.00;99.90;;;-0.37;100.00;98747.25;4984313;28;100128;-64
2021/01/25 01:37:20;;;;;;;46.17;25.57;;;2.00;99.90;;;-0.39;100.00;98744.78;4984431;28;100032;-62
2021/01/25 01:39:46;;;;;;;45.17;25.00;;;1.90;99.90;;;-0.37;100.00;98752.50;4983542;28;100629;-64
2021/01/25 01:42:17;;;;;;;46.97;25.97;;;2.00;99.90;;;-0.34;100.00;98756.69;4983839;28;100160;-64
2021/01/25 01:44:45;;;;;;;42.50;25.00;;;2.10;99.90;;;-0.37;100.00;98755.13;4983517;28;100369;-64
2021/01/25 01:47:20;;;;;;;45.80;25.73;;;2.00;99.90;;;-0.37;100.00;98755.13;4982267;28;101012;-63
2021/01/25 01:49:47;;;;;;;48.37;25.27;;;2.00;99.90;;;-0.36;100.00;98764.69;4983402;28;100610;-62
2021/01/25 01:52:15;;;;;;;46.43;26.43;;;2.00;99.90;;;-0.36;100.00;98762.06;4984116;28;100080;-62
2021/01/25 01:54:42;;;;;;;50.50;26.57;;;2.00;99.90;;;-0.36;100.00;98755.00;4984118;28;100188;-63
2021/01/25 01:57:09;;;;;;;44.73;24.30;;;1.90;99.90;;;-0.39;100.00;98764.97;4982405;28;100960;-63
2021/01/25 01:59:37;;;;;;;45.87;26.77;;;2.00;99.90;;;-0.40;100.00;98763.28;4984284;28;100731;-63
2021/01/25 02:02:06;;;;;;;48.13;25.67;;;1.90;99.90;;;-0.37;100.00;98757.75;4983931;28;100276;-63
2021/01/25 02:04:33;;;;;;;46.87;25.90;;;1.90;99.90;;;-0.39;100.00;98763.16;4984008;28;100118;-63
2021/01/25 02:07:02;;;;;;;43.80;25.63;;;1.90;99.90;;;-0.39;100.00;98760.53;4984223;28;100200;-63
2021/01/25 02:09:33;;;;;;;44.80;24.83;;;1.80;99.90;;;-0.43;100.00;98760.91;4981764;28;101018;-61
2021/01/25 02:12:01;;;;;;;43.13;23.20;;;1.90;99.90;;;-0.43;100.00;98761.75;4983415;28;99992;-62
2021/01/25 02:14:27;;;;;;;48.47;25.67;;;2.00;99.90;;;-0.41;100.00;98759.00;4985811;28;100184;-63
2021/01/25 02:16:54;;;;;;;46.37;25.77;;;1.80;99.90;;;-0.44;100.00;98757.44;4985662;28;101262;-64
2021/01/25 02:19:34;;;;;;;44.20;26.47;;;1.90;99.90;;;-0.43;100.00;98763.53;4985589;28;100466;-62
2021/01/25 02:22:16;;;;;;;47.70;25.87;;;1.80;99.90;;;-0.45;100.00;98757.56;4984554;28;100159;-64
2021/01/25 02:24:46;;;;;;;46.10;25.47;;;1.70;99.90;;;-0.41;100.00;98765.09;4986353;28;100484;-62
2021/01/25 02:27:33;;;;;;;47.27;25.57;;;1.80;99.90;;;-0.44;100.00;98762.72;4983924;28;101357;-62
2021/01/25 02:30:01;;;;;;;43.77;24.40;;;1.90;99.90;;;-0.45;100.00;98763.66;4982623;28;100534;-63
2021/01/25 02:32:32;;;;;;;43.50;24.50;;;1.90;99.90;;;-0.45;100.00;98754.94;4981621;28;100201;-64
2021/01/25 02:35:01;;;;;;;43.90;26.43;;;1.80;99.90;;;-0.44;100.00;98760.06;4981277;28;101048;-63
2021/01/25 02:37:28;;;;;;;44.53;25.40;;;1.80;99.90;;;-0.42;100.00;98765.22;4982046;28;100550;-63
2021/01/25 02:39:57;;;;;;;44.87;26.10;;;1.90;99.90;;;-0.46;100.00;98769.03;4982048;28;100135;-62
2021/01/25 02:42:26;;;;;;;44.00;25.00;;;1.90;99.90;;;-0.47;100.00;98773.47;4985393;27;100636;-61
2021/01/25 02:44:54;;;;;;;47.63;26.17;;;1.80;99.90;;;-0.46;100.00;98771.66;4986629;28;100232;-61
2021/01/25 02:47:32;;;;;;;48.67;28.13;;;1.70;99.90;;;-0.47;100.00;98773.47;4986299;28;101107;-61
2021/01/25 02:49:58;;;;;;;47.70;25.77;;;1.90;99.90;;;-0.45;100.00;98773.34;4986744;28;100214;-62
2021/01/25 02:52:25;;;;;;;48.97;26.30;;;1.80;99.90;;;-0.47;100.00;98773.47;4987449;28;100279;-61
2021/01/25 02:54:51;;;;;;;49.33;25.90;;;1.80;99.90;;;-0.48;100.00;98776.22;4987013;28;100207;-61
2021/01/25 02:57:20;;;;;;;46.93;26.13;;;1.90;99.90;;;-0.48;100.00;98777.03;4987502;28;100858;-61
2021/01/25 02:59:49;;;;;;;47.50;26.67;;;1.90;99.90;;;-0.48;100.00;98779.66;4985646;28;100682;-62
2021/01/25 03:02:16;;;;;;;46.43;26.17;;;2.70;99.90;;;-0.46;100.00;98771.66;4986234;28;100210;-61
2021/01/25 03:04:43;;;;;;;47.67;26.77;;;1.30;99.90;;;-0.46;100.00;98779.56;4985911;28;100170;-61
2021/01/25 03:07:10;;;;;;;50.30;28.40;;;1.80;99.90;;;-0.49;100.00;98772.75;4982966;28;103054;-61
2021/01/25 03:09:36;;;;;;;52.00;26.37;;;1.80;99.90;;;-0.47;100.00;98772.63;4985542;28;101602;-61
2021/01/25 03:12:05;;;;;;;51.03;29.33;;;1.90;99.90;;;-0.47;100.00;98770.84;4985183;28;100863;-62
2021/01/25 03:14:32;;;;;;;50.37;27.63;;;1.70;99.90;;;-0.43;100.00;98771.44;4986311;28;100428;-61
2021/01/25 03:16:59;;;;;;;49.80;28.03;;;1.80;99.90;;;-0.42;100.00;98776.56;4985325;28;100893;-61
2021/01/25 03:19:26;;;;;;;48.33;27.93;;;1.80;99.90;;;-0.40;100.00;98779.06;4985862;28;101154;-61
2021/01/25 03:21:54;;;;;;;48.53;28.13;;;2.20;99.90;;;-0.44;100.00;98780.25;4984053;28;99967;-62
2021/01/25 03:24:21;;;;;;;51.57;29.60;;;1.90;99.90;;;-0.42;100.00;98778.34;4986157;28;99982;-61
2021/01/25 03:26:48;;;;;;;50.47;29.03;;;1.10;99.90;;;-0.41;100.00;98786.13;4985654;28;101632;-61
2021/01/25 03:29:15;;;;;;;58.03;31.30;;;1.80;99.90;;;-0.41;100.00;98777.41;4985625;28;101475;-61
2021/01/25 03:31:42;;;;;;;58.30;30.90;;;1.80;99.90;;;-0.37;100.00;98784.03;4985902;28;100428;-61
2021/01/25 03:34:08;;;;;;;57.27;30.13;;;1.80;99.90;;;-0.37;100.00;98784.88;4986145;28;99981;-61
2021/01/25 03:36:36;;;;;;;54.70;30.30;;;1.80;99.90;;;-0.37;100.00;98784.88;4984082;28;100827;-62
2021/01/25 04:03:18;;;;;;;75.33;31.47;;;1.90;99.90;;;-0.23;100.00;98802.16;4980104;27;100917;-62
2021/01/25 04:05:44;;;;;;;106.90;34.17;;;2.60;99.90;;;-0.14;100.00;98797.94;4986019;28;100773;-61
2021/01/25 04:08:11;;;;;;;115.30;35.47;;;2.10;99.90;;;-0.15;100.00;98794.47;4984919;28;101256;-60
2021/01/25 04:10:37;;;;;;;58.00;31.07;;;2.00;99.90;;;-0.24;100.00;98795.22;4985463;28;100135;-63
2021/01/25 04:13:04;;;;;;;70.83;32.80;;;2.00;99.90;;;-0.21;100.00;98789.72;4985987;27;100639;-61
2021/01/25 04:15:30;;;;;;;361.40;57.13;;;2.10;99.90;;;-0.15;100.00;98801.53;4984173;28;101622;-61
2021/01/25 04:17:57;;;;;;;56.53;32.33;;;2.20;99.90;;;-0.21;100.00;98799.41;4984277;28;102153;-61
2021/01/25 04:20:24;;;;;;;130.57;35.70;;;2.10;99.90;;;-0.13;100.00;98794.34;4985150;28;100064;-60
2021/01/25 04:22:50;;;;;;;232.40;46.20;;;2.00;99.90;;;-0.13;100.00;98797.81;4984327;28;100569;-61
2021/01/25 04:25:17;;;;;;;58.93;33.47;;;2.20;99.90;;;-0.21;100.00;98810.75;4981390;28;103121;-61
2021/01/25 04:27:43;;;;;;;87.77;34.37;;;2.10;99.90;;;-0.14;100.00;98813.72;4983849;28;101154;-61
2021/01/25 04:30:12;;;;;;;344.47;54.00;;;2.10;99.90;;;-0.12;100.00;98811.78;4984425;28;100984;-62
2021/01/25 04:32:41;;;;;;;61.13;32.43;;;2.30;99.90;;;-0.22;100.00;98814.34;4985443;28;100351;-62
2021/01/25 04:35:11;;;;;;;52.63;30.13;;;2.20;99.90;;;-0.29;100.00;98810.56;4997986;27;101369;-62
2021/01/25 04:37:39;;;;;;;57.60;31.30;;;2.10;99.90;;;-0.33;100.00;98813.53;4984981;28;101527;-61
2021/01/25 04:40:09;;;;;;;54.77;30.10;;;2.00;99.90;;;-0.36;100.00;98812.00;4986086;28;100420;-62
2021/01/25 04:42:38;;;;;;;51.77;29.73;;;2.00;99.90;;;-0.36;100.00;98820.72;4986164;28;100094;-62
2021/01/25 04:45:06;;;;;;;51.43;29.47;;;1.90;99.90;;;-0.35;100.00;98824.19;4984366;28;101332;-62
2021/01/25 04:47:33;;;;;;;54.17;29.57;;;2.00;99.90;;;-0.34;100.00;98836.38;4984980;28;101063;-62
2021/01/25 04:50:00;;;;;;;48.50;28.53;;;2.00;99.90;;;-0.35;100.00;98826.81;4983889;28;100375;-61
2021/01/25 04:52:27;;;;;;;48.57;29.70;;;2.00;99.90;;;-0.36;100.00;98830.38;4984490;28;100091;-63
2021/01/25 04:54:56;;;;;;;52.37;31.67;;;1.90;99.90;;;-0.33;100.00;98845.09;4984574;28;101220;-63
2021/01/25 04:57:23;;;;;;;77.47;32.43;;;1.90;99.90;;;-0.37;100.00;98842.69;4985110;28;100694;-63
2021/01/25 04:59:52;;;;;;;208.23;44.53;;;2.00;99.90;;;-0.26;100.00;98841.00;4984465;28;100145;-63
2021/01/25 05:02:19;;;;;;;48.23;28.30;;;2.00;99.90;;;-0.34;100.00;98844.25;4985730;28;99964;-63
2021/01/25 05:04:47;;;;;;;57.30;30.03;;;1.90;99.90;;;-0.37;100.00;98844.50;4983403;27;101475;-63
2021/01/25 05:07:13;;;;;;;53.43;28.63;;;1.90;99.90;;;-0.37;100.00;98841.88;4984708;28;101330;-63
2021/01/25 05:09:40;;;;;;;54.70;29.37;;;2.00;99.90;;;-0.31;100.00;98841.38;4985112;28;100093;-62
2021/01/25 05:12:08;;;;;;;71.90;33.47;;;2.00;99.90;;;-0.33;100.00;98848.53;4985139;28;100433;-62
2021/01/25 05:14:38;;;;;;;189.67;40.17;;;2.00;99.90;;;-0.28;100.00;98842.94;4984237;28;100905;-62
2021/01/25 05:17:09;;;;;;;47.53;28.00;;;2.10;99.90;;;-0.35;100.00;98842.56;4985042;28;100498;-61
2021/01/25 05:19:37;;;;;;;49.17;29.60;;;2.00;99.90;;;-0.36;100.00;98840.91;4984488;28;100431;-62
2021/01/25 05:22:13;;;;;;;53.10;29.17;;;2.20;99.90;;;-0.42;100.00;98841.41;4982019;28;100217;-61
2021/01/25 05:24:50;;;;;;;51.03;29.13;;;2.20;99.90;;;-0.43;100.00;98837.97;4982363;28;101450;-61
2021/01/25 05:27:26;;;;;;;48.20;28.13;;;2.10;99.90;;;-0.35;100.00;98839.94;4983627;28;100886;-60
2021/01/25 05:29:53;;;;;;;49.97;28.17;;;2.10;99.90;;;-0.30;100.00;98850.09;4982848;28;100531;-60
2021/01/25 05:32:20;;;;;;;49.27;27.77;;;2.00;99.90;;;-0.41;100.00;98846.56;4985154;28;100208;-61
2021/01/25 05:34:47;;;;;;;48.77;27.57;;;2.10;99.90;;;-0.43;100.00;98858.13;4983857;28;101574;-61
2021/01/25 05:37:14;;;;;;;47.40;28.73;;;2.10;99.90;;;-0.44;100.00;98859.94;4983677;28;100678;-61
2021/01/25 05:39:45;;;;;;;48.27;28.70;;;2.00;99.90;;;-0.40;100.00;98858.75;4983978;28;100137;-61
2021/01/25 05:42:12;;;;;;;48.97;28.37;;;2.10;99.90;;;-0.37;100.00;98858.47;4983075;28;100485;-61
2021/01/25 05:44:40;;;;;;;42.80;25.60;;;2.00;99.90;;;-0.30;100.00;98858.81;4983488;28;101056;-61
2021/01/25 05:47:08;;;;;;;49.33;28.90;;;1.90;99.90;;;-0.45;100.00;98863.50;4982823;28;100930;-62
2021/01/25 05:49:35;;;;;;;47.33;28.80;;;2.00;99.90;;;-0.54;100.00;98864.25;4983819;28;100180;-61
2021/01/25 05:52:02;;;;;;;42.17;27.10;;;2.00;99.90;;;-0.47;100.00;98864.59;4984563;28;100194;-61
2021/01/25 05:54:29;;;;;;;46.97;28.50;;;2.20;99.90;;;-0.48;100.00;98870.81;4984119;28;100943;-61
2021/01/25 05:56:55;;;;;;;45.50;25.03;;;2.10;99.90;;;-0.44;100.00;98859.94;4982877;28;101681;-61
2021/01/25 05:59:22;;;;;;;48.80;27.63;;;2.50;99.90;;;-0.46;100.00;98858.38;4982268;28;100516;-62
2021/01/25 06:01:49;;;;;;;48.17;26.80;;;2.00;99.90;;;-0.42;100.00;98865.06;4982609;28;100214;-62
2021/01/25 06:04:19;;;;;;;43.03;26.27;;;2.00;99.90;;;-0.42;100.00;98862.44;4979188;28;100861;-63
2021/01/25 06:07:02;;;;;;;50.43;28.67;;;2.10;99.90;;;-0.49;100.00;98864.72;4982248;28;100478;-62
2021/01/25 06:09:36;;;;;;;45.37;27.30;;;2.10;99.90;;;-0.46;100.00;98861.00;4983234;27;100212;-60
2021/01/25 06:12:06;;;;;;;45.97;28.73;;;2.10;99.90;;;-0.49;100.00;98867.34;4984041;28;100855;-61
2021/01/25 06:14:39;;;;;;;43.93;26.93;;;2.10;99.90;;;-0.48;100.00;98862.91;4984458;28;101251;-61
2021/01/25 06:17:10;;;;;;;47.33;29.37;;;2.20;99.90;;;-0.57;100.00;98861.88;4983844;27;101114;-61
2021/01/25 06:19:37;;;;;;;46.30;27.43;;;2.10;99.90;;;-0.56;100.00;98862.72;4991437;27;100247;-61
2021/01/25 06:22:04;;;;;;;46.87;27.07;;;2.00;99.90;;;-0.58;100.00;98864.63;4997663;27;100267;-62
2021/01/25 06:24:31;;;;;;;44.50;26.40;;;2.00;99.90;;;-0.53;100.00;98871.19;4995634;27;100245;-60
2021/01/25 06:27:02;;;;;;;45.77;27.17;;;2.10;99.90;;;-0.60;100.00;98875.25;4991108;27;100302;-60
2021/01/25 06:29:31;;;;;;;45.63;25.90;;;2.00;99.90;;;-0.57;100.00;98877.63;4984117;27;100021;-62
2021/01/25 06:32:00;;;;;;;43.30;26.63;;;2.10;99.90;;;-0.61;100.00;98878.00;4984220;28;100091;-63
2021/01/25 06:34:28;;;;;;;105.73;32.70;;;1.90;99.90;;;-0.56;100.00;98878.47;4983374;28;101494;-62
2021/01/25 06:36:55;;;;;;;43.33;26.13;;;0.00;99.90;;;-0.61;100.00;98886.72;4983062;28;100731;-62
2021/01/25 06:39:25;;;;;;;44.97;27.27;;;1.80;99.90;;;-0.65;100.00;98885.31;4984403;28;100369;-62
2021/01/25 06:42:01;;;;;;;42.90;25.50;;;1.90;99.90;;;-0.68;100.00;98879.44;4984325;28;100151;-60
2021/01/25 06:44:29;;;;;;;41.53;23.90;;;1.80;99.90;;;-0.61;100.00;98899.00;4984074;28;101210;-61
2021/01/25 06:46:57;;;;;;;43.30;25.50;;;1.80;99.90;;;-0.70;100.00;98900.56;4983435;28;101501;-62
2021/01/25 06:49:29;;;;;;;44.00;25.93;;;1.80;99.90;;;-0.70;100.00;98910.25;4983996;28;100379;-59
2021/01/25 06:51:56;;;;;;;46.53;28.50;;;1.80;99.90;;;-0.77;100.00;98907.28;4983332;28;100089;-61
2021/01/25 06:54:25;;;;;;;62.03;39.50;;;1.70;99.90;;;-0.79;100.00;98915.28;4981996;28;101612;-60
2021/01/25 06:56:53;;;;;;;43.60;27.93;;;1.70;99.90;;;-0.72;100.00;98913.81;4982959;28;100665;-60
2021/01/25 06:59:21;;;;;;;46.10;26.60;;;1.70;99.90;;;-0.79;100.00;98911.81;4982064;28;100414;-61
2021/01/25 07:01:50;;;;;;;44.20;27.03;;;1.70;99.90;;;-0.76;100.00;98920.31;4982835;28;100183;-63
2021/01/25 07:04:19;;;;;;;65.43;39.80;;;1.60;99.90;;;-0.75;100.00;98923.75;4982707;28;102071;-61
2021/01/25 07:06:51;;;;;;;44.23;27.43;;;1.60;99.90;;;-0.78;100.00;98926.63;4982035;28;100327;-61
2021/01/25 07:09:26;;;;;;;46.57;27.17;;;1.60;99.90;;;-0.83;100.00;98936.63;4981448;28;100087;-60
2021/01/25 07:11:54;;;;;;;43.37;26.30;;;1.70;99.90;;;-0.89;100.00;98937.13;4979815;28;100205;-62
2021/01/25 07:14:24;;;;;;;41.50;25.70;;;1.50;99.90;;;-0.92;100.00;98945.22;4982807;27;102122;-61
2021/01/25 07:16:53;;;;;;;40.00;23.53;;;2.00;99.90;;;-0.78;100.00;98942.38;4983076;28;101028;-60
2021/01/25 07:19:20;;;;;;;46.80;27.23;;;1.60;99.90;;;-0.75;100.00;98942.16;4983475;28;100305;-61
2021/01/25 07:21:50;;;;;;;46.67;27.40;;;1.60;99.90;;;-0.79;100.00;98946.78;4965394;28;100452;-62
2021/01/25 07:24:21;;;;;;;51.43;27.70;;;1.60;99.90;;;-0.70;100.00;98957.53;4982956;28;100976;-59
2021/01/25 07:26:56;;;;;;;67.00;27.10;;;1.70;99.90;;;-0.62;100.00;98953.38;4982705;28;100760;-61
2021/01/25 07:29:33;;;;;;;44.60;26.27;;;1.60;99.90;;;-0.83;100.00;98960.28;4986513;28;100118;-61
2021/01/25 07:32:00;;;;;;;47.27;27.17;;;1.60;99.90;;;-0.88;100.00;98957.19;4986602;28;100214;-60
2021/01/25 07:34:30;;;;;;;45.47;27.57;;;1.50;99.90;;;-0.89;100.00;98968.63;4986995;28;101612;-60
2021/01/25 07:36:57;;;;;;;48.10;28.93;;;1.50;99.90;;;-0.86;100.00;98968.38;4986412;28;101371;-64
2021/01/25 07:39:24;;;;;;;45.57;27.37;;;1.50;99.90;;;-0.90;100.00;98973.06;4987179;28;100123;-62
2021/01/25 07:41:50;;;;;;;44.20;26.20;;;1.40;99.90;;;-0.84;100.00;98974.34;4986399;28;100101;-63
2021/01/25 07:44:17;;;;;;;46.37;26.60;;;1.50;99.90;;;-0.82;100.00;98970.66;4986014;28;101714;-63
2021/01/25 07:46:47;;;;;;;44.50;26.03;;;1.50;99.90;;;-0.78;100.00;98973.91;4985983;28;101169;-61
2021/01/25 07:49:14;;;;;;;45.50;26.73;;;1.40;99.90;;;-0.81;100.00;98969.72;4986922;28;100360;-64
2021/01/25 07:51:41;;;;;;;46.10;27.27;;;1.50;99.90;;;-0.87;100.00;98959.69;4986444;28;100147;-60
2021/01/25 07:54:15;;;;;;;41.03;25.10;;;1.50;99.90;;;-0.86;100.00;98971.84;4986006;28;100953;-61
2021/01/25 07:56:42;;;;;;;42.63;25.07;;;1.50;99.90;;;-0.85;100.00;98973.50;4984924;28;101239;-60
2021/01/25 07:59:14;;;;;;;45.53;27.50;;;1.50;99.90;;;-0.72;100.00;98973.41;4985997;28;100033;-61
2021/01/25 08:01:46;;;;;;;47.77;28.37;;;1.40;99.90;;;-0.58;100.00;98977.59;4967952;28;100365;-63
2021/01/25 08:04:20;;;;;;;165.00;36.90;;;1.40;99.90;;;-0.50;100.00;98978.69;4985780;28;101356;-62
2021/01/25 08:06:48;;;;;;;193.13;40.27;;;1.60;99.90;;;-0.36;100.00;98981.03;4986033;28;101206;-60
2021/01/25 08:09:18;;;;;;;49.77;26.53;;;1.90;99.90;;;-0.56;100.00;98978.31;4986024;27;100239;-61
2021/01/25 08:11:46;;;;;;;43.07;24.53;;;1.90;99.90;;;-0.66;100.00;98987.88;4985992;28;101447;-61
2021/01/25 08:14:27;;;;;;;36.83;23.93;;;1.80;99.90;;;-0.56;100.00;98994.06;4986759;28;100842;-63
2021/01/25 08:16:59;;;;;;;40.90;25.13;;;2.10;99.90;;;-0.44;100.00;98999.22;4985589;28;100762;-62
2021/01/25 08:19:35;;;;;;;102.10;28.67;;;2.10;99.90;;;-0.36;100.00;99001.22;4985823;28;100042;-60
2021/01/25 08:22:06;;;;;;;40.27;24.50;;;2.30;99.90;;;-0.17;100.00;99009.34;4986904;28;100304;-64
2021/01/25 08:24:32;;;;;;;36.43;23.63;;;2.30;99.90;;;-0.09;100.00;99008.72;4985770;28;100248;-61
2021/01/25 08:27:17;;;;;;;39.50;24.27;;;2.50;99.90;;;-0.18;100.00;99002.41;4985133;28;101522;-62
2021/01/25 08:29:49;;;;;;;40.73;25.07;;;2.60;99.90;;;-0.01;100.00;99008.97;4985909;28;100082;-61
2021/01/25 08:32:24;;;;;;;38.07;23.70;;;2.80;99.90;;;-0.06;100.00;99013.75;4985707;28;100110;-61
2021/01/25 08:34:58;;;;;;;37.77;21.80;;;3.00;99.90;;;0.15;100.00;99016.44;4984478;28;101383;-63
2021/01/25 08:37:28;;;;;;;33.27;21.20;;;3.10;99.90;;;0.18;100.00;99019.66;4985368;28;100914;-63
2021/01/25 08:39:55;;;;;;;29.47;20.17;;;3.20;99.90;;;0.25;100.00;99017.34;4984151;27;99894;-63
2021/01/25 08:42:24;;;;;;;26.93;17.93;;;3.40;99.90;;;0.38;100.00;99019.84;4985681;28;100099;-63
2021/01/25 08:44:55;;;;;;;24.60;15.83;;;3.50;99.90;;;0.34;100.00;99022.75;4985289;28;100738;-62
2021/01/25 08:47:26;;;;;;;25.13;16.57;;;3.80;99.90;;;0.30;100.00;99020.47;4985157;28;101535;-64
2021/01/25 08:49:53;;;;;;;29.53;17.57;;;4.00;99.90;;;0.61;100.00;99019.66;4985815;28;100113;-63
2021/01/25 08:52:27;;;;;;;22.83;16.63;;;4.00;99.90;;;0.48;100.00;99018.16;4986615;28;100168;-62
2021/01/25 08:55:07;;;;;;;20.60;15.07;;;4.10;99.90;;;0.34;100.00;99021.91;4985213;28;101153;-63
2021/01/25 08:57:36;;;;;;;23.07;14.53;;;4.40;99.90;;;0.45;100.00;99021.88;4985487;28;100125;-62
2021/01/25 09:00:13;;;;;;;23.50;15.43;;;4.40;99.90;;;0.55;100.00;99020.16;4984392;28;100523;-60
2021/01/25 09:02:40;;;;;;;25.60;14.93;;;4.50;99.90;;;0.80;100.00;99020.75;4985666;28;100027;-61
2021/01/25 09:05:08;;;;;;;23.20;14.57;;;4.40;99.90;;;0.87;100.00;99028.00;4985019;28;100520;-61
2021/01/25 09:07:35;;;;;;;25.50;15.30;;;4.60;99.90;;;1.06;100.00;99028.16;4984998;28;101982;-60
2021/01/25 09:10:01;;;;;;;23.63;15.33;;;4.00;99.90;;;1.15;100.00;99028.34;4985449;28;100465;-59
2021/01/25 09:12:28;;;;;;;23.20;16.03;;;4.70;99.90;;;1.30;100.00;99034.94;4986457;28;99967;-62
2021/01/25 09:14:54;;;;;;;20.07;14.27;;;5.30;99.90;;;1.52;100.00;99033.94;4984966;28;100898;-61
2021/01/25 09:17:29;;;;;;;20.13;13.73;;;5.60;99.90;;;1.41;100.00;99040.97;4986047;28;100030;-61
2021/01/25 09:19:55;;;;;;;22.00;14.10;;;5.70;99.90;;;1.15;100.00;99039.72;4984183;28;100310;-61
2021/01/25 09:22:21;;;;;;;20.80;14.57;;;5.90;99.90;;;1.15;100.00;99039.72;4984912;28;100342;-61
2021/01/25 09:24:48;;;;;;;19.73;12.83;;;5.90;99.90;;;0.94;100.00;99046.78;4983458;28;101129;-61
2021/01/25 09:27:14;;;;;;;19.40;12.53;;;5.90;99.90;;;1.16;100.00;99045.81;4984810;28;101180;-62
2021/01/25 09:29:41;;;;;;;19.63;14.17;;;5.90;99.90;;;1.40;100.00;99046.38;4985421;28;100092;-62
2021/01/25 09:32:07;;;;;;;20.00;14.47;;;6.00;99.90;;;1.95;100.00;99039.00;4985768;28;100426;-60
2021/01/25 09:34:35;;;;;;;22.13;13.93;;;6.10;99.90;;;1.72;100.00;99039.19;4984783;28;100878;-61
2021/01/25 09:37:03;;;;;;;19.30;13.23;;;6.40;99.90;;;1.59;100.00;99048.28;4984348;28;100617;-61
2021/01/25 09:39:29;;;;;;;18.60;13.70;;;6.40;99.90;;;1.37;100.00;99046.63;4985410;28;100271;-62
2021/01/25 09:41:55;;;;;;;21.17;14.40;;;6.50;99.90;;;1.34;100.00;99052.19;4985397;28;99985;-62
2021/01/25 09:44:22;;;;;;;20.60;13.27;;;6.30;99.90;;;0.81;100.00;99051.38;4983472;28;101081;-62
2021/01/25 09:46:48;;;;;;;21.50;14.73;;;6.30;99.90;;;0.86;100.00;99060.59;4985111;28;100400;-61
2021/01/25 09:49:15;;;;;;;19.87;13.47;;;5.90;99.90;;;0.88;100.00;99058.66;4985102;28;100265;-61
2021/01/25 09:51:42;;;;;;;20.83;13.73;;;5.80;99.90;;;0.77;100.00;99060.50;4984945;28;100263;-62
2021/01/25 09:54:09;;;;;;;19.20;14.07;;;5.50;99.90;;;0.73;100.00;99059.94;4987016;28;100730;-61
2021/01/25 09:56:35;;;;;;;20.93;14.57;;;5.20;99.90;;;1.00;100.00;99057.63;4985265;28;100583;-62
2021/01/25 09:59:05;;;;;;;21.63;14.53;;;5.20;99.90;;;1.12;100.00;99058.41;4983211;28;100028;-61
2021/01/25 10:01:31;;;;;;;18.43;12.57;;;5.40;99.90;;;1.13;100.00;99061.88;4985224;28;100283;-62
2021/01/25 10:03:58;;;;;;;17.27;12.37;;;5.30;99.90;;;1.01;100.00;99059.28;4985042;28;100839;-61
2021/01/25 10:06:24;;;;;;;17.00;12.33;;;5.50;99.90;;;0.71;100.00;99062.69;4985116;28;101408;-61
2021/01/25 10:08:51;;;;;;;19.43;13.07;;;6.20;99.90;;;0.80;100.00;99065.50;4985273;28;100275;-61
2021/01/25 10:11:17;;;;;;;18.93;13.03;;;4.90;99.90;;;0.69;100.00;99066.41;4990681;28;99972;-63
2021/01/25 10:13:44;;;;;;;19.57;13.13;;;4.80;99.90;;;0.83;100.00;99070.53;4988351;28;101325;-62
2021/01/25 10:16:10;;;;;;;20.87;13.90;;;4.60;99.90;;;1.10;100.00;99072.69;4984668;28;101108;-60
2021/01/25 10:18:37;;;;;;;18.97;13.60;;;4.50;99.90;;;0.98;100.00;99074.53;4985222;28;100303;-62
2021/01/25 10:21:03;;;;;;;18.37;13.80;;;4.30;99.90;;;0.90;100.00;99085.69;4984885;28;100422;-62
2021/01/25 10:23:30;;;;;;;18.27;12.33;;;4.10;99.90;;;0.98;100.00;99079.81;4984559;28;101783;-61
2021/01/25 10:25:57;;;;;;;16.57;12.20;;;4.30;99.90;;;1.05;100.00;99088.88;4984698;28;100598;-61
2021/01/25 10:28:24;;;;;;;19.37;13.00;;;4.40;99.90;;;1.12;100.00;99083.91;4985397;28;99927;-63
2021/01/25 10:30:50;;;;;;;18.60;13.73;;;5.00;99.90;;;1.19;100.00;99093.81;4984757;28;100360;-60